Time;durP1;ratioP1;P1;durP2;ratioP2;P2;SDS_P1;SDS_P2;PMS_P1;PMS_P2;Temp;Humidity;BMP_temperature;BMP_pressure;BME280_temperature;BME280_humidity;BME280_pressure;Samples;Min_cycle;Max_cycle;Signal;HPM_P1;HPM_P2
2022/10/23 00:00:47;;;;;;;11.33;3.90;;;-17.10;99.90;;;;;;5028026;28;20216;-77
2022/10/23 00:03:13;;;;;;;14.30;4.67;;;-15.50;99.90;;;;;;5035248;28;20216;-76
2022/10/23 00:05:40;;;;;;;5.43;3.90;;;-16.60;99.90;;;;;;5034872;28;20181;-76
2022/10/23 00:08:06;;;;;;;7.47;3.87;;;-19.10;99.90;;;;;;5035248;28;20597;-75
2022/10/23 00:10:33;;;;;;;7.50;4.10;;;-16.60;99.90;;;;;;5032590;28;20192;-75
2022/10/23 00:12:59;;;;;;;12.40;3.47;;;-16.30;99.90;;;;;;5032597;28;20180;-75
2022/10/23 00:15:26;;;;;;;3.73;3.43;;;-16.90;99.90;;;;;;5035030;28;20189;-78
2022/10/23 00:17:52;;;;;;;5.80;3.23;;;-18.10;99.90;;;;;;5023236;28;20181;-77
2022/10/23 00:20:18;;;;;;;4.30;3.23;;;-17.80;99.90;;;;;;5024680;28;20219;-74
2022/10/23 00:22:43;;;;;;;5.27;3.10;;;-18.50;99.90;;;;;;5023024;28;20185;-76
2022/10/23 00:25:10;;;;;;;3.30;2.93;;;-18.40;99.90;;;;;;5030552;28;20989;-77
2022/10/23 00:27:36;;;;;;;7.03;4.37;;;-16.40;99.90;;;;;;5038710;28;20263;-75
2022/10/23 00:30:04;;;;;;;8.70;3.57;;;-17.40;99.90;;;;;;5038478;28;20537;-77
2022/10/23 00:32:30;;;;;;;10.23;3.93;;;-18.10;99.90;;;;;;5027148;28;20541;-75
2022/10/23 00:34:55;;;;;;;5.93;3.80;;;-17.00;99.90;;;;;;5031601;28;20277;-78
2022/10/23 00:37:21;;;;;;;10.00;3.83;;;-16.00;99.90;;;;;;5035122;28;20191;-78
2022/10/23 00:39:47;;;;;;;3.80;3.30;;;-17.20;99.90;;;;;;5029445;28;21007;-77
2022/10/23 00:42:19;;;;;;;6.67;3.83;;;-16.60;99.90;;;;;;5031376;28;20184;-77
2022/10/23 00:44:44;;;;;;;11.67;5.47;;;-16.10;99.90;;;;;;5038546;28;20258;-75
2022/10/23 00:47:12;;;;;;;11.00;4.30;;;-14.70;99.90;;;;;;5024737;28;20213;-71
2022/10/23 00:49:37;;;;;;;10.40;3.40;;;-13.70;99.90;;;;;;5051714;28;20196;-70
2022/10/23 00:52:07;;;;;;;6.13;3.90;;;-13.30;99.90;;;;;;5025396;28;20183;-70
2022/10/23 00:54:36;;;;;;;16.70;3.23;;;-13.40;99.90;;;;;;5029987;28;20185;-71
2022/10/23 00:57:06;;;;;;;9.17;3.30;;;-14.60;99.90;;;;;;5037531;28;20581;-70
2022/10/23 00:59:32;;;;;;;8.73;3.43;;;-19.30;99.90;;;;;;5037838;28;20208;-74
2022/10/23 01:01:58;;;;;;;9.50;3.70;;;-20.90;99.90;;;;;;5032979;28;20221;-76
2022/10/23 01:04:25;;;;;;;6.43;3.00;;;-19.50;99.90;;;;;;5037883;28;20239;-76
2022/10/23 01:07:00;;;;;;;8.73;2.80;;;-20.20;99.90;;;;;;5028557;28;20220;-73
2022/10/23 01:09:48;;;;;;;15.10;3.17;;;-22.50;99.90;;;;;;5049144;28;20479;-76
2022/10/23 01:12:31;;;;;;;14.30;3.17;;;-18.70;99.90;;;;;;5034479;28;20236;-72
2022/10/23 01:15:19;;;;;;;3.00;2.57;;;-19.40;99.90;;;;;;5031933;28;20184;-72
2022/10/23 01:17:50;;;;;;;9.03;2.87;;;-18.40;99.90;;;;;;5026148;28;20479;-71
2022/10/23 01:20:22;;;;;;;4.90;2.80;;;-19.70;99.90;;;;;;5037642;28;20219;-70
2022/10/23 01:23:25;;;;;;;3.90;2.63;;;-19.30;99.90;;;;;;5028593;28;20204;-69
2022/10/23 01:26:28;;;;;;;7.63;2.33;;;-19.30;99.90;;;;;;5035396;28;20188;-69
2022/10/23 01:29:06;;;;;;;12.47;3.27;;;-15.80;99.90;;;;;;5030640;28;20185;-69
2022/10/23 01:31:49;;;;;;;6.50;3.50;;;-16.40;99.90;;;;;;5034447;28;20185;-74
2022/10/23 01:34:21;;;;;;;11.67;4.53;;;-17.70;99.90;;;;;;5033099;28;20200;-69
2022/10/23 01:36:49;;;;;;;10.40;3.20;;;-17.70;99.90;;;;;;5036702;28;20180;-73
2022/10/23 01:39:22;;;;;;;17.77;4.23;;;-18.30;99.90;;;;;;5052512;28;20197;-71
2022/10/23 01:41:53;;;;;;;14.63;4.70;;;-20.00;99.90;;;;;;5032477;28;20231;-72
2022/10/23 01:44:22;;;;;;;4.13;2.67;;;-16.90;99.90;;;;;;5028095;28;20185;-73
2022/10/23 01:46:51;;;;;;;8.80;3.00;;;-17.30;99.90;;;;;;5032973;28;20184;-74
2022/10/23 01:49:19;;;;;;;3.93;2.50;;;-19.80;99.90;;;;;;5037024;28;20249;-76
2022/10/23 01:51:50;;;;;;;13.13;4.27;;;-19.40;99.90;;;;;;5032721;28;20189;-72
2022/10/23 01:54:18;;;;;;;9.37;3.57;;;-22.10;99.90;;;;;;5037102;28;20176;-71
2022/10/23 01:56:47;;;;;;;28.03;3.57;;;-21.10;99.90;;;;;;5029316;28;20191;-76
2022/10/23 01:59:18;;;;;;;12.70;4.03;;;-19.60;99.90;;;;;;5037180;28;20189;-72
2022/10/23 02:01:46;;;;;;;27.00;4.33;;;-21.70;99.90;;;;;;5029023;28;20688;-71
2022/10/23 02:04:17;;;;;;;9.37;3.13;;;-20.90;99.90;;;;;;5024668;28;20597;-70
2022/10/23 02:06:43;;;;;;;8.37;2.77;;;-20.20;99.90;;;;;;5034654;28;20200;-72
2022/10/23 02:09:09;;;;;;;9.77;3.70;;;-18.40;99.90;;;;;;5029228;28;20513;-73
2022/10/23 02:11:43;;;;;;;4.00;2.30;;;-20.20;99.90;;;;;;5027591;28;20185;-74
2022/10/23 02:14:28;;;;;;;8.33;2.17;;;-20.70;99.90;;;;;;5028282;28;20584;-73
2022/10/23 02:17:00;;;;;;;5.60;2.37;;;-21.90;99.90;;;;;;5047566;28;20192;-72
2022/10/23 02:19:37;;;;;;;4.47;2.23;;;-20.20;99.90;;;;;;5026925;28;20181;-70
2022/10/23 02:22:06;;;;;;;7.63;3.00;;;-18.80;99.90;;;;;;5024029;28;20481;-73
2022/10/23 02:24:44;;;;;;;5.97;2.93;;;-17.10;99.90;;;;;;5026771;28;20211;-70
2022/10/23 02:27:14;;;;;;;10.20;2.57;;;-17.80;99.90;;;;;;5031702;28;20572;-73
2022/10/23 02:29:49;;;;;;;4.03;2.20;;;-17.80;99.90;;;;;;5015449;28;20181;-71
2022/10/23 02:32:17;;;;;;;10.07;2.50;;;-17.00;99.90;;;;;;5031989;28;20188;-70
2022/10/23 02:34:43;;;;;;;11.23;2.60;;;-17.20;99.90;;;;;;5027886;28;20268;-71
2022/10/23 02:37:09;;;;;;;4.83;2.77;;;-16.30;99.90;;;;;;5018741;28;20276;-71
2022/10/23 02:39:35;;;;;;;10.33;3.40;;;-17.00;99.90;;;;;;5027233;28;20269;-69
2022/10/23 02:42:31;;;;;;;2.87;2.07;;;-18.50;99.90;;;;;;5035823;28;20607;-72
2022/10/23 02:45:08;;;;;;;4.37;2.03;;;-17.70;99.90;;;;;;5036068;28;20200;-73
2022/10/23 02:47:36;;;;;;;4.43;2.57;;;-17.00;99.90;;;;;;5030420;28;20180;-70
2022/10/23 02:50:20;;;;;;;7.07;2.57;;;-16.70;99.90;;;;;;5030118;28;20604;-71
2022/10/23 02:53:17;;;;;;;4.23;2.70;;;-16.10;99.90;;;;;;5031214;28;20284;-74
2022/10/23 02:56:02;;;;;;;6.73;2.27;;;-16.00;99.90;;;;;;5030089;28;20196;-70
2022/10/23 02:58:46;;;;;;;5.80;2.27;;;-15.90;99.90;;;;;;5034952;28;20274;-74
2022/10/23 03:01:16;;;;;;;9.00;3.13;;;-16.40;99.90;;;;;;5027758;28;20270;-70
2022/10/23 03:03:47;;;;;;;4.93;2.47;;;-16.50;99.90;;;;;;5028173;28;20213;-71
2022/10/23 03:06:13;;;;;;;14.03;2.50;;;-16.80;99.90;;;;;;5032547;28;20667;-74
2022/10/23 03:08:43;;;;;;;2.27;2.03;;;-16.10;99.90;;;;;;5021790;28;20185;-75
2022/10/23 03:11:09;;;;;;;9.13;2.33;;;-16.60;99.90;;;;;;5022833;28;20196;-73
2022/10/23 03:13:35;;;;;;;17.40;2.93;;;-18.30;99.90;;;;;;5027923;28;20242;-74
2022/10/23 03:16:01;;;;;;;6.93;2.20;;;-17.60;99.90;;;;;;5030583;28;20208;-74
2022/10/23 03:18:27;;;;;;;4.30;3.43;;;-17.50;99.90;;;;;;5035658;28;20215;-76
2022/10/23 03:20:52;;;;;;;6.20;3.00;;;-17.90;99.90;;;;;;5046554;28;20247;-78
2022/10/23 03:23:18;;;;;;;7.67;3.10;;;-20.00;99.90;;;;;;5050039;28;20188;-69
2022/10/23 03:25:44;;;;;;;6.80;2.90;;;-18.60;99.90;;;;;;5031135;28;20246;-70
2022/10/23 03:28:09;;;;;;;5.50;1.87;;;-19.20;99.90;;;;;;5029984;28;20183;-69
2022/10/23 03:30:35;;;;;;;4.73;2.87;;;-19.10;99.90;;;;;;5028323;28;20280;-71
2022/10/23 03:33:00;;;;;;;4.00;2.53;;;-21.10;99.90;;;;;;5029670;28;20203;-78
2022/10/23 03:35:26;;;;;;;4.03;2.33;;;-20.20;99.90;;;;;;5035626;28;20188;-73
2022/10/23 03:37:52;;;;;;;9.80;3.07;;;-18.00;99.90;;;;;;5035637;28;20272;-77
2022/10/23 03:40:17;;;;;;;8.60;3.37;;;-17.20;99.90;;;;;;5035362;28;20307;-70
2022/10/23 03:42:43;;;;;;;7.87;2.40;;;-17.20;99.90;;;;;;5035685;28;20185;-75
2022/10/23 03:45:09;;;;;;;4.33;2.80;;;-17.30;99.90;;;;;;5035184;28;20176;-76
2022/10/23 03:47:39;;;;;;;3.90;2.37;;;-16.60;99.90;;;;;;5023164;28;20189;-78
2022/10/23 03:50:06;;;;;;;4.03;2.27;;;-19.10;99.90;;;;;;5021552;28;20177;-74
2022/10/23 03:52:32;;;;;;;5.10;2.50;;;-18.80;99.90;;;;;;5024726;28;20250;-73
2022/10/23 03:54:58;;;;;;;3.37;2.17;;;-17.80;99.90;;;;;;5029065;28;20189;-77
2022/10/23 03:57:24;;;;;;;3.70;2.30;;;-19.10;99.90;;;;;;5026785;28;20200;-74
2022/10/23 03:59:50;;;;;;;6.80;2.80;;;-19.50;99.90;;;;;;5034251;28;20291;-77
2022/10/23 04:02:15;;;;;;;6.07;3.17;;;-20.60;99.90;;;;;;5038689;28;20235;-78
2022/10/23 04:04:41;;;;;;;7.20;2.63;;;-20.00;99.90;;;;;;5023095;28;20201;-77
2022/10/23 04:07:07;;;;;;;6.67;3.10;;;-17.70;99.90;;;;;;5033888;28;20254;-73
2022/10/23 04:09:33;;;;;;;5.27;2.43;;;-16.30;99.90;;;;;;5027672;28;20192;-75
2022/10/23 04:11:58;;;;;;;5.43;2.60;;;-16.20;99.90;;;;;;5046228;28;20169;-74
2022/10/23 04:14:24;;;;;;;3.93;2.60;;;-16.30;99.90;;;;;;5028756;28;20193;-77
2022/10/23 04:16:50;;;;;;;4.17;3.00;;;-14.90;99.90;;;;;;5031830;28;20191;-77
2022/10/23 04:19:16;;;;;;;12.23;3.13;;;-17.60;99.90;;;;;;5039122;28;20259;-76
2022/10/23 04:21:42;;;;;;;5.50;2.53;;;-15.90;99.90;;;;;;5033786;28;20208;-76
2022/10/23 04:24:08;;;;;;;6.30;3.07;;;-17.50;99.90;;;;;;5031044;28;20186;-77
2022/10/23 04:26:34;;;;;;;5.23;3.03;;;-17.10;99.90;;;;;;5027110;28;20189;-76
2022/10/23 04:29:00;;;;;;;7.40;2.60;;;-19.90;99.90;;;;;;5032510;28;20180;-75
2022/10/23 04:31:26;;;;;;;4.23;2.87;;;-15.30;99.90;;;;;;5039174;28;20220;-76
2022/10/23 04:33:51;;;;;;;6.07;3.27;;;-16.70;99.90;;;;;;5038980;28;20189;-76
2022/10/23 04:36:17;;;;;;;2.90;2.60;;;-17.20;99.90;;;;;;5034943;28;20219;-78
2022/10/23 04:38:43;;;;;;;7.57;2.80;;;-15.90;99.90;;;;;;5020788;28;20251;-75
2022/10/23 04:41:09;;;;;;;8.63;2.43;;;-15.40;99.90;;;;;;5025665;28;20245;-77
2022/10/23 04:43:35;;;;;;;4.97;2.77;;;-16.90;99.90;;;;;;5034179;28;20238;-78
2022/10/23 04:46:00;;;;;;;3.63;2.80;;;-16.60;99.90;;;;;;5038634;28;20184;-75
2022/10/23 04:48:26;;;;;;;3.00;2.50;;;-17.30;99.90;;;;;;5033747;28;20607;-77
2022/10/23 04:51:00;;;;;;;6.13;3.80;;;-18.60;99.90;;;;;;5032530;28;20479;-75
2022/10/23 04:53:27;;;;;;;4.60;2.80;;;-16.90;99.90;;;;;;5037151;28;20250;-77
2022/10/23 04:55:54;;;;;;;4.77;3.00;;;-17.20;99.90;;;;;;5028915;28;20209;-79
2022/10/23 04:58:22;;;;;;;2.63;2.43;;;-17.70;99.90;;;;;;5030693;28;20196;-78
2022/10/23 05:00:48;;;;;;;5.83;2.87;;;-17.20;99.90;;;;;;5025510;28;20219;-78
2022/10/23 05:03:15;;;;;;;7.87;2.93;;;-15.60;99.90;;;;;;5033865;28;20192;-77
2022/10/23 05:05:41;;;;;;;3.10;2.83;;;-15.90;99.90;;;;;;5023724;28;20591;-75
2022/10/23 05:08:07;;;;;;;5.60;2.70;;;-16.70;99.90;;;;;;5020939;28;20264;-78
2022/10/23 05:10:33;;;;;;;9.87;2.57;;;-18.70;99.90;;;;;;5037695;28;20181;-76
2022/10/23 05:12:59;;;;;;;9.40;2.53;;;-18.90;99.90;;;;;;5032960;28;20614;-77
2022/10/23 05:15:25;;;;;;;7.17;2.80;;;-16.60;99.90;;;;;;5037061;28;20202;-79
2022/10/23 05:18:01;;;;;;;3.23;2.53;;;-15.30;99.90;;;;;;5033266;28;20191;-77
2022/10/23 05:20:31;;;;;;;3.40;2.40;;;-15.50;99.90;;;;;;5027028;28;20204;-77
2022/10/23 05:22:59;;;;;;;3.07;2.57;;;-17.90;99.90;;;;;;5037859;28;20177;-77
2022/10/23 05:25:25;;;;;;;5.37;3.17;;;-18.20;99.90;;;;;;5037721;28;20208;-76
2022/10/23 05:27:51;;;;;;;6.60;2.37;;;-16.10;99.90;;;;;;5037591;28;20266;-76
2022/10/23 05:30:17;;;;;;;3.10;2.33;;;-15.50;99.90;;;;;;5037404;28;20189;-80
2022/10/23 05:32:43;;;;;;;4.37;2.87;;;-15.70;99.90;;;;;;5037660;28;20201;-77
2022/10/23 05:35:14;;;;;;;4.50;3.27;;;-15.90;99.90;;;;;;5036171;28;20650;-77
2022/10/23 05:37:44;;;;;;;3.17;2.33;;;-16.60;99.90;;;;;;5029798;28;20197;-78
2022/10/23 05:40:10;;;;;;;2.67;2.37;;;-19.10;99.90;;;;;;5025693;28;20291;-77
2022/10/23 05:42:36;;;;;;;2.40;2.23;;;-20.10;99.90;;;;;;5026747;28;20267;-74
2022/10/23 05:45:02;;;;;;;3.20;2.73;;;-19.50;99.90;;;;;;5027549;28;20260;-77
2022/10/23 05:47:28;;;;;;;5.17;2.97;;;-17.70;99.90;;;;;;5037845;28;20238;-79
2022/10/23 05:49:54;;;;;;;2.30;2.10;;;-18.20;99.90;;;;;;5037421;28;20177;-73
2022/10/23 05:52:19;;;;;;;5.67;3.10;;;-16.90;99.90;;;;;;5028606;28;20190;-79
2022/10/23 05:54:45;;;;;;;8.10;2.67;;;-16.90;99.90;;;;;;5032381;28;20209;-77
2022/10/23 05:57:11;;;;;;;5.40;2.57;;;-18.90;99.90;;;;;;5029011;28;20615;-75
2022/10/23 05:59:37;;;;;;;2.27;2.17;;;-17.50;99.90;;;;;;5030019;28;20231;-78
2022/10/23 06:02:02;;;;;;;4.10;2.33;;;-15.30;99.90;;;;;;5024696;28;20221;-77
2022/10/23 06:04:28;;;;;;;7.30;2.47;;;-15.50;99.90;;;;;;5037178;28;20188;-80
2022/10/23 06:06:54;;;;;;;4.10;2.53;;;-14.70;99.90;;;;;;5037172;28;20239;-76
2022/10/23 06:09:20;;;;;;;2.33;2.07;;;-16.90;99.90;;;;;;5030314;28;20280;-76
2022/10/23 06:11:46;;;;;;;5.97;2.30;;;-14.90;99.90;;;;;;5052882;28;20184;-77
2022/10/23 06:14:11;;;;;;;2.07;1.97;;;-16.70;99.90;;;;;;5021952;28;20189;-79
2022/10/23 06:16:37;;;;;;;5.70;1.93;;;-17.30;99.90;;;;;;5029661;28;20189;-77
2022/10/23 06:19:03;;;;;;;2.33;2.10;;;-18.00;99.90;;;;;;5036818;28;20180;-79
2022/10/23 06:21:29;;;;;;;5.60;2.57;;;-16.30;99.90;;;;;;5036367;28;20215;-71
2022/10/23 06:23:55;;;;;;;6.53;1.73;;;-17.70;99.90;;;;;;5030552;28;20193;-73
2022/10/23 06:26:21;;;;;;;2.23;2.13;;;-17.40;99.90;;;;;;5036356;28;20279;-73
2022/10/23 06:28:47;;;;;;;4.60;1.80;;;-17.90;99.90;;;;;;5034861;28;20263;-75
2022/10/23 06:31:15;;;;;;;4.13;2.00;;;-18.80;99.90;;;;;;5034428;28;20550;-72
2022/10/23 06:33:41;;;;;;;6.77;3.87;;;-18.30;99.90;;;;;;5034265;28;20192;-71
2022/10/23 06:36:09;;;;;;;5.50;2.70;;;-18.50;99.90;;;;;;5035974;28;20184;-73
2022/10/23 06:38:39;;;;;;;6.43;2.00;;;-19.00;99.90;;;;;;5033111;28;20188;-75
2022/10/23 06:41:16;;;;;;;3.70;1.87;;;-21.60;99.90;;;;;;5035699;28;20295;-79
2022/10/23 06:43:41;;;;;;;4.10;2.73;;;-19.00;99.90;;;;;;5034398;28;20325;-78
2022/10/23 06:46:08;;;;;;;9.73;3.03;;;-15.80;99.90;;;;;;5035875;28;20280;-74
2022/10/23 06:48:34;;;;;;;4.67;2.00;;;-15.30;99.90;;;;;;5030358;28;20181;-72
2022/10/23 06:51:06;;;;;;;7.40;2.47;;;-18.00;99.90;;;;;;5038605;28;20480;-71
2022/10/23 06:53:32;;;;;;;2.43;2.23;;;-17.10;99.90;;;;;;5036117;28;20169;-74
2022/10/23 06:55:59;;;;;;;2.53;1.47;;;-16.80;99.90;;;;;;5033597;28;20179;-72
2022/10/23 06:58:25;;;;;;;5.37;2.10;;;-19.20;99.90;;;;;;5033249;28;20266;-72
2022/10/23 07:00:51;;;;;;;5.33;2.23;;;-16.90;99.90;;;;;;5034286;28;20212;-74
2022/10/23 07:03:18;;;;;;;4.13;2.73;;;-21.30;99.90;;;;;;5031445;28;20186;-73
2022/10/23 07:05:43;;;;;;;4.23;2.20;;;-24.20;99.90;;;;;;5026208;28;20482;-69
2022/10/23 07:08:09;;;;;;;2.00;1.80;;;-22.40;99.90;;;;;;5043564;28;20180;-73
2022/10/23 07:10:35;;;;;;;3.80;2.03;;;-24.50;99.90;;;;;;5030938;28;20191;-76
2022/10/23 07:13:02;;;;;;;2.13;1.90;;;-19.10;99.90;;;;;;5030311;28;20184;-75
2022/10/23 07:15:28;;;;;;;3.07;2.30;;;-18.30;99.90;;;;;;5035743;28;20584;-72
2022/10/23 07:17:54;;;;;;;2.87;2.10;;;-17.00;99.90;;;;;;5035902;28;20215;-76
2022/10/23 07:20:21;;;;;;;1.90;1.60;;;-17.60;99.90;;;;;;5030385;28;20636;-72
2022/10/23 07:22:52;;;;;;;8.73;2.00;;;-16.50;99.90;;;;;;5030877;28;20212;-73
2022/10/23 07:25:18;;;;;;;6.63;3.07;;;-23.20;99.90;;;;;;5035564;28;20195;-77
2022/10/23 07:27:43;;;;;;;3.93;2.10;;;-23.20;99.90;;;;;;5021767;28;20188;-78
2022/10/23 07:30:10;;;;;;;5.20;2.10;;;-21.50;99.90;;;;;;5039601;28;20183;-78
2022/10/23 07:32:35;;;;;;;1.30;1.20;;;-22.10;99.90;;;;;;5027190;28;20759;-76
2022/10/23 07:35:01;;;;;;;6.47;2.47;;;-23.20;99.90;;;;;;5028979;28;20284;-70
2022/10/23 07:37:29;;;;;;;5.23;2.27;;;-21.80;99.90;;;;;;5032097;28;20204;-74
2022/10/23 07:39:55;;;;;;;3.90;2.47;;;-26.60;99.90;;;;;;5031336;28;20196;-70
2022/10/23 07:42:20;;;;;;;2.80;1.80;;;-21.70;99.90;;;;;;5022297;28;20184;-73
2022/10/23 07:44:46;;;;;;;2.13;1.63;;;-20.90;99.90;;;;;;5041104;28;20181;-75
2022/10/23 07:47:12;;;;;;;5.57;2.73;;;-24.10;99.90;;;;;;5020793;28;20181;-77
2022/10/23 07:49:37;;;;;;;2.90;2.10;;;-31.20;99.90;;;;;;5031225;28;20184;-77
2022/10/23 07:52:06;;;;;;;5.03;2.30;;;-30.10;99.90;;;;;;5029037;28;20180;-76
2022/10/23 07:54:32;;;;;;;5.43;2.00;;;-28.10;99.90;;;;;;5034785;28;20180;-73
2022/10/23 07:56:58;;;;;;;3.67;2.03;;;-26.30;99.90;;;;;;5033088;28;20184;-72
2022/10/23 07:59:24;;;;;;;4.13;2.90;;;-22.00;99.90;;;;;;5031815;28;20193;-74
2022/10/23 08:01:51;;;;;;;3.77;1.87;;;-22.70;99.90;;;;;;5030060;28;20519;-75
2022/10/23 08:04:18;;;;;;;9.80;3.63;;;-27.70;99.90;;;;;;5025762;28;20178;-73
2022/10/23 08:06:44;;;;;;;5.17;1.57;;;-29.00;99.90;;;;;;5027265;28;20173;-74
2022/10/23 08:09:09;;;;;;;8.30;2.40;;;-21.50;99.90;;;;;;5029369;28;20183;-75
2022/10/23 08:11:35;;;;;;;4.57;1.57;;;-26.00;99.90;;;;;;5034604;28;20180;-75
2022/10/23 08:14:03;;;;;;;4.80;2.50;;;-21.60;99.90;;;;;;5031328;28;20644;-72
2022/10/23 08:16:30;;;;;;;2.67;2.20;;;-18.20;99.90;;;;;;4994836;28;20196;-70
2022/10/23 08:18:56;;;;;;;6.03;2.13;;;-18.20;99.90;;;;;;5022902;28;20180;-72
2022/10/23 08:21:22;;;;;;;4.33;1.40;;;-22.10;99.90;;;;;;5032181;28;20705;-73
2022/10/23 08:23:48;;;;;;;4.50;1.93;;;-20.50;99.90;;;;;;5025110;28;20204;-77
2022/10/23 08:26:14;;;;;;;6.60;2.17;;;-20.40;99.90;;;;;;5029387;28;20185;-78
2022/10/23 08:28:40;;;;;;;3.40;1.83;;;-19.40;99.90;;;;;;5032877;28;20286;-74
2022/10/23 08:31:12;;;;;;;3.00;2.20;;;-31.60;99.90;;;;;;5039193;28;20616;-77
2022/10/23 08:33:38;;;;;;;4.13;2.00;;;-31.50;99.90;;;;;;5031107;28;20192;-73
2022/10/23 08:36:04;;;;;;;2.97;2.20;;;-28.40;99.90;;;;;;5032025;28;20818;-74
2022/10/23 08:38:32;;;;;;;3.37;1.70;;;-30.40;99.90;;;;;;5027987;28;20662;-75
2022/10/23 08:41:00;;;;;;;5.57;2.47;;;-28.50;99.90;;;;;;5033443;28;20197;-78
2022/10/23 08:43:34;;;;;;;2.23;1.63;;;-22.20;99.90;;;;;;5020494;28;20182;-76
2022/10/23 08:46:05;;;;;;;8.73;2.10;;;-25.10;99.90;;;;;;5045051;28;20177;-75
2022/10/23 08:48:38;;;;;;;2.30;2.10;;;-25.20;99.90;;;;;;5035456;28;20525;-71
2022/10/23 08:51:27;;;;;;;4.03;2.70;;;-19.80;99.90;;;;;;5031583;28;20184;-71
2022/10/23 08:54:04;;;;;;;2.60;2.40;;;-20.00;99.90;;;;;;5033767;28;20246;-75
2022/10/23 08:56:36;;;;;;;18.53;2.60;;;-25.40;99.90;;;;;;5019709;28;20489;-73
2022/10/23 08:59:21;;;;;;;3.40;2.10;;;-18.80;99.90;;;;;;5049122;28;20216;-77
2022/10/23 09:01:57;;;;;;;3.70;2.73;;;-19.00;99.90;;;;;;5036033;28;20298;-76
2022/10/23 09:04:22;;;;;;;2.63;2.10;;;-23.90;99.90;;;;;;5032500;28;20188;-78
2022/10/23 09:07:14;;;;;;;3.73;2.70;;;-18.60;99.90;;;;;;5037749;28;20267;-78
2022/10/23 09:10:15;;;;;;;2.30;2.10;;;-19.00;99.90;;;;;;5028319;28;20200;-76
2022/10/23 09:12:41;;;;;;;2.63;2.30;;;-19.30;99.90;;;;;;5010584;28;20189;-75
2022/10/23 09:15:28;;;;;;;3.50;2.67;;;-19.10;99.90;;;;;;5018486;28;20186;-76
2022/10/23 09:17:58;;;;;;;4.43;2.50;;;-20.10;99.90;;;;;;5026267;28;20177;-77
2022/10/23 09:20:28;;;;;;;5.17;2.53;;;-22.90;99.90;;;;;;5030421;28;20250;-74
2022/10/23 09:22:59;;;;;;;7.23;3.27;;;-26.50;99.90;;;;;;5032555;28;20180;-76
2022/10/23 09:25:32;;;;;;;2.47;2.00;;;-35.00;99.90;;;;;;5033625;28;20223;-74
2022/10/23 09:28:00;;;;;;;4.97;2.87;;;-35.90;99.90;;;;;;5032042;28;20527;-71
2022/10/23 09:30:35;;;;;;;8.43;2.87;;;-36.70;99.90;;;;;;5034052;28;20226;-77
2022/10/23 09:33:17;;;;;;;6.10;2.57;;;-36.40;99.90;;;;;;5017901;28;20268;-75
2022/10/23 09:35:57;;;;;;;4.07;2.50;;;-40.00;99.90;;;;;;5027429;28;20585;-75
2022/10/23 09:38:45;;;;;;;7.53;3.30;;;-40.00;99.90;;;;;;5040517;28;20197;-75
2022/10/23 09:41:26;;;;;;;3.10;2.80;;;-40.00;99.90;;;;;;5013298;28;20209;-74
2022/10/23 09:44:07;;;;;;;2.70;1.87;;;-40.00;99.90;;;;;;5045711;28;20587;-73
2022/10/23 09:46:41;;;;;;;3.13;2.37;;;-40.00;99.90;;;;;;5026440;28;20212;-74
2022/10/23 09:49:20;;;;;;;9.27;4.27;;;-40.00;99.90;;;;;;5027431;28;20194;-72
2022/10/23 09:52:09;;;;;;;6.83;3.40;;;-40.00;99.90;;;;;;5031183;28;20591;-73
2022/10/23 09:55:01;;;;;;;6.47;2.50;;;-40.00;99.90;;;;;;5023478;28;21944;-72
2022/10/23 09:57:42;;;;;;;6.73;3.10;;;-40.00;99.90;;;;;;5031463;28;20281;-71
2022/10/23 10:00:16;;;;;;;7.10;2.30;;;-40.00;99.90;;;;;;5030996;28;20616;-71
2022/10/23 10:02:53;;;;;;;7.20;2.40;;;-40.00;99.90;;;;;;5034456;28;20212;-72
2022/10/23 10:05:32;;;;;;;2.50;2.23;;;-40.00;99.90;;;;;;5030168;28;20189;-77
2022/10/23 10:08:04;;;;;;;3.83;2.53;;;-40.00;99.90;;;;;;5035542;28;20181;-80
2022/10/23 10:11:01;;;;;;;9.30;2.93;;;-40.00;99.90;;;;;;5031580;28;20176;-74
2022/10/23 10:13:32;;;;;;;4.43;2.07;;;-40.00;99.90;;;;;;5030682;28;20731;-72
2022/10/23 10:16:24;;;;;;;3.60;1.87;;;-40.00;99.90;;;;;;5044918;28;20184;-72
2022/10/23 10:19:08;;;;;;;2.97;2.67;;;-40.00;99.90;;;;;;5017946;28;20591;-74
2022/10/23 10:21:47;;;;;;;5.90;2.57;;;-40.00;99.90;;;;;;5047914;28;20274;-74
2022/10/23 10:24:21;;;;;;;4.60;2.20;;;-40.00;99.90;;;;;;5035589;28;20214;-73
2022/10/23 10:27:02;;;;;;;4.57;2.60;;;-40.00;99.90;;;;;;5031675;28;20173;-72
2022/10/23 10:30:05;;;;;;;3.97;2.33;;;-40.00;99.90;;;;;;5025061;28;20239;-72
2022/10/23 10:32:52;;;;;;;3.17;2.17;;;-40.00;99.90;;;;;;5033360;28;20222;-76
2022/10/23 10:35:42;;;;;;;4.23;2.27;;;-40.00;99.90;;;;;;5030396;28;20173;-76
2022/10/23 10:38:22;;;;;;;5.00;3.03;;;-40.00;99.90;;;;;;5028066;28;20182;-78
2022/10/23 10:41:19;;;;;;;3.17;2.40;;;-40.00;99.90;;;;;;5034887;28;20500;-76
2022/10/23 10:44:02;;;;;;;2.40;2.03;;;-40.00;99.90;;;;;;5030850;28;20259;-77
2022/10/23 10:47:04;;;;;;;4.33;2.30;;;-40.00;99.90;;;;;;5030126;28;20587;-76
2022/10/23 10:49:48;;;;;;;5.07;2.90;;;-40.00;99.90;;;;;;5019021;28;20185;-78
2022/10/23 10:52:13;;;;;;;7.90;3.13;;;-40.00;99.90;;;;;;5024689;28;20184;-76
2022/10/23 10:55:06;;;;;;;4.00;2.20;;;-40.00;99.90;;;;;;5051183;28;20181;-78
2022/10/23 10:57:46;;;;;;;5.13;2.67;;;-40.00;99.90;;;;;;5031452;28;20217;-76
2022/10/23 11:00:19;;;;;;;3.10;1.97;;;-40.00;99.90;;;;;;5032063;28;20220;-77
2022/10/23 11:02:47;;;;;;;5.70;1.97;;;-40.00;99.90;;;;;;5030344;28;20200;-78
2022/10/23 11:05:22;;;;;;;6.70;3.53;;;-40.00;99.90;;;;;;5030337;28;20188;-78
2022/10/23 11:07:53;;;;;;;4.77;2.60;;;-40.00;99.90;;;;;;5025036;28;20542;-84
2022/10/23 11:10:20;;;;;;;3.50;2.40;;;-40.00;99.90;;;;;;5031620;28;20283;-75
2022/10/23 11:12:47;;;;;;;12.30;2.80;;;-40.00;99.90;;;;;;5030666;28;20185;-82
2022/10/23 11:15:30;;;;;;;4.87;2.47;;;-40.00;99.90;;;;;;5042859;28;20307;-81
2022/10/23 11:18:11;;;;;;;10.63;2.97;;;-40.00;99.90;;;;;;5031380;28;20178;-78
2022/10/23 11:20:58;;;;;;;3.47;2.10;;;-40.00;99.90;;;;;;5033519;28;20650;-73
2022/10/23 11:23:36;;;;;;;6.23;2.03;;;-40.00;99.90;;;;;;5035301;28;20243;-73
2022/10/23 11:26:29;;;;;;;6.00;2.20;;;-40.00;99.90;;;;;;5029369;28;20226;-72
2022/10/23 11:29:04;;;;;;;2.43;2.20;;;-40.00;99.90;;;;;;5023955;28;20181;-73
2022/10/23 11:32:02;;;;;;;6.50;2.70;;;-40.00;99.90;;;;;;5018994;28;20486;-70
2022/10/23 11:34:37;;;;;;;4.57;1.80;;;-40.00;99.90;;;;;;5006466;28;20201;-77
2022/10/23 11:37:03;;;;;;;3.43;2.00;;;-40.00;99.90;;;;;;5035373;28;20176;-77
2022/10/23 11:39:34;;;;;;;3.90;2.50;;;-40.00;99.90;;;;;;5018591;28;20192;-79
2022/10/23 11:42:03;;;;;;;2.40;1.90;;;-40.00;99.90;;;;;;5033957;28;20196;-80
2022/10/23 11:44:40;;;;;;;3.47;2.10;;;-40.00;99.90;;;;;;5029527;28;20342;-76
2022/10/23 11:47:25;;;;;;;5.53;2.00;;;-40.00;99.90;;;;;;5024574;28;20246;-76
2022/10/23 11:50:06;;;;;;;2.30;1.70;;;-40.00;99.90;;;;;;5034586;28;20187;-76
2022/10/23 11:52:51;;;;;;;3.23;2.30;;;-40.00;99.90;;;;;;5030499;28;20181;-77
2022/10/23 11:55:25;;;;;;;11.03;2.17;;;-40.00;99.90;;;;;;5030701;28;20189;-76
2022/10/23 11:58:06;;;;;;;6.57;1.80;;;-40.00;99.90;;;;;;5035026;28;20177;-74
2022/10/23 12:00:37;;;;;;;2.53;2.10;;;-40.00;99.90;;;;;;5021598;28;20270;-77
2022/10/23 12:03:04;;;;;;;3.40;1.70;;;-40.00;99.90;;;;;;5030065;28;20184;-78
2022/10/23 12:05:41;;;;;;;3.70;2.17;;;-40.00;99.90;;;;;;5034883;28;20180;-73
2022/10/23 12:08:21;;;;;;;2.87;2.10;;;-40.00;99.90;;;;;;5028828;28;20169;-74
2022/10/23 12:10:54;;;;;;;6.00;2.73;;;-40.00;99.90;;;;;;5029660;28;20199;-74
2022/10/23 12:13:49;;;;;;;4.70;1.87;;;-40.00;99.90;;;;;;5024940;28;20196;-73
2022/10/23 12:16:15;;;;;;;4.07;1.97;;;-40.00;99.90;;;;;;5033851;28;20604;-73
2022/10/23 12:18:53;;;;;;;6.30;3.60;;;-40.00;99.90;;;;;;5023192;28;20201;-76
2022/10/23 12:21:21;;;;;;;4.77;2.13;;;-40.00;99.90;;;;;;5023490;28;20244;-75
2022/10/23 12:23:47;;;;;;;4.00;2.77;;;-40.00;99.90;;;;;;5031610;28;20169;-74
2022/10/23 12:26:16;;;;;;;4.93;1.53;;;-40.00;99.90;;;;;;5048057;28;20238;-75
2022/10/23 12:29:07;;;;;;;5.50;2.17;;;-40.00;99.90;;;;;;5048254;28;20479;-72
2022/10/23 12:31:51;;;;;;;3.57;2.40;;;-40.00;99.90;;;;;;5032762;28;20492;-73
2022/10/23 12:34:42;;;;;;;3.10;2.70;;;-40.00;99.90;;;;;;5048163;28;20212;-74
2022/10/23 12:37:27;;;;;;;8.03;2.97;;;-40.00;99.90;;;;;;5032827;28;20185;-73
2022/10/23 12:39:55;;;;;;;4.50;3.07;;;-40.00;99.90;;;;;;5037309;28;20185;-71
2022/10/23 12:42:23;;;;;;;3.17;2.60;;;-40.00;99.90;;;;;;5033639;28;20176;-71
2022/10/23 12:45:00;;;;;;;6.13;2.10;;;-40.00;99.90;;;;;;5035431;28;20588;-72
2022/10/23 12:47:27;;;;;;;3.20;2.93;;;-40.00;99.90;;;;;;5038535;28;20188;-72
2022/10/23 12:49:53;;;;;;;4.67;2.27;;;-40.00;99.90;;;;;;5038597;28;20202;-75
2022/10/23 12:52:20;;;;;;;4.10;1.97;;;-40.00;99.90;;;;;;5053993;28;20201;-72
2022/10/23 12:54:46;;;;;;;4.37;2.03;;;-40.00;99.80;;;;;;5053679;28;20216;-74
2022/10/23 12:57:27;;;;;;;2.03;1.83;;;-40.00;99.10;;;;;;5034506;28;20189;-73